Time;durP1;ratioP1;P1;durP2;ratioP2;P2;SDS_P1;SDS_P2;PMS_P1;PMS_P2;Temp;Humidity;BMP_temperature;BMP_pressure;BME280_temperature;BME280_humidity;BME280_pressure;Samples;Min_cycle;Max_cycle;Signal;HPM_P1;HPM_P2
2023/03/10 00:01:49;;;;;;;0.30;0.30;;;;;;;17.34;45.52;98384.22;5134648;27;20656;-39
2023/03/10 00:04:15;;;;;;;0.40;0.40;;;;;;;17.34;45.46;98374.03;5135377;27;20047;-39
2023/03/10 00:06:40;;;;;;;0.38;0.38;;;;;;;17.33;45.82;98375.16;5134695;27;20049;-39
2023/03/10 00:09:07;;;;;;;0.40;0.40;;;;;;;17.34;45.54;98371.28;5135022;27;20067;-39
2023/03/10 00:11:32;;;;;;;0.40;0.40;;;;;;;17.35;45.42;98367.38;5135523;27;20327;-39
2023/03/10 00:13:58;;;;;;;0.40;0.40;;;;;;;17.33;45.47;98355.91;5134965;27;20046;-39
2023/03/10 00:16:28;;;;;;;0.30;0.30;;;;;;;17.33;45.60;98355.09;5135681;27;20483;-39
2023/03/10 00:18:54;;;;;;;0.40;0.40;;;;;;;17.34;45.65;98360.25;5116531;27;20046;-39
2023/03/10 00:21:23;;;;;;;0.30;0.30;;;;;;;17.34;45.51;98345.72;5115626;27;20121;-39
2023/03/10 00:23:49;;;;;;;0.28;0.28;;;;;;;17.33;45.69;98344.09;5116302;27;20387;-39
2023/03/10 00:26:17;;;;;;;0.40;0.40;;;;;;;17.33;45.39;98353.16;5125615;27;20398;-39
2023/03/10 00:28:43;;;;;;;0.30;0.30;;;;;;;17.34;45.37;98368.53;5109146;28;20054;-39
2023/03/10 00:31:12;;;;;;;0.30;0.30;;;;;;;17.33;45.48;98364.16;5123584;27;20094;-39
2023/03/10 00:33:37;;;;;;;;;;;;;;;17.34;45.35;98385.03;5122739;27;20055;-39
2023/03/10 00:36:09;;;;;;;0.40;0.40;;;;;;;17.34;45.41;98398.78;5122982;27;19923;-39
2023/03/10 00:38:36;;;;;;;0.35;0.35;;;;;;;17.32;45.56;98398.31;5116120;27;20054;-39
2023/03/10 00:41:04;;;;;;;0.30;0.30;;;;;;;17.33;45.41;98405.44;5116304;27;20045;-40
2023/03/10 00:43:30;;;;;;;0.35;0.35;;;;;;;17.34;45.64;98401.53;5116425;27;20047;-39
2023/03/10 00:45:56;;;;;;;0.38;0.38;;;;;;;17.33;45.38;98399.13;5121682;27;20046;-39
2023/03/10 00:48:22;;;;;;;0.30;0.30;;;;;;;17.33;45.56;98404.63;5116460;27;20138;-39
2023/03/10 00:50:47;;;;;;;0.40;0.40;;;;;;;17.32;45.46;98400.25;5116269;27;20264;-39
2023/03/10 00:53:13;;;;;;;0.38;0.38;;;;;;;17.32;45.32;98401.06;5115684;27;20039;-39
2023/03/10 00:55:39;;;;;;;0.40;0.40;;;;;;;17.33;45.17;98399.13;5130386;27;20043;-38
2023/03/10 00:58:05;;;;;;;0.30;0.30;;;;;;;17.33;45.50;98399.13;5089980;27;20140;-39
2023/03/10 01:00:30;;;;;;;0.40;0.40;;;;;;;17.33;45.25;98391.66;5134681;27;20046;-39
2023/03/10 01:02:57;;;;;;;0.30;0.30;;;;;;;17.33;45.53;98405.44;5133790;27;20323;-38
2023/03/10 01:05:23;;;;;;;0.35;0.35;;;;;;;17.33;45.37;98402.69;5114620;27;20171;-39
2023/03/10 01:07:49;;;;;;;0.40;0.40;;;;;;;17.33;45.59;98399.91;5134612;27;20103;-39
2023/03/10 01:10:14;;;;;;;0.40;0.40;;;;;;;17.33;45.53;98394.41;5134387;27;20046;-39
2023/03/10 01:12:40;;;;;;;0.40;0.40;;;;;;;17.33;45.60;98396.38;5134065;27;20061;-39
2023/03/10 01:15:06;;;;;;;0.40;0.40;;;;;;;17.34;45.32;98401.53;5098649;27;20047;-39
2023/03/10 01:17:32;;;;;;;0.40;0.40;;;;;;;17.32;45.52;98401.06;5121231;27;20151;-39
2023/03/10 01:19:58;;;;;;;0.40;0.40;;;;;;;17.33;45.61;98399.13;5078382;28;20441;-39
2023/03/10 01:22:23;;;;;;;0.30;0.30;;;;;;;17.33;45.59;98402.69;5113325;28;20404;-39
2023/03/10 01:24:49;;;;;;;0.30;0.30;;;;;;;17.33;45.49;98401.88;5132270;27;20422;-39
2023/03/10 01:27:15;;;;;;;0.30;0.30;;;;;;;17.32;45.33;98398.31;5134577;27;20083;-39
2023/03/10 01:29:40;;;;;;;0.30;0.30;;;;;;;17.33;45.18;98401.88;5134729;27;20047;-39
2023/03/10 01:32:06;;;;;;;0.30;0.30;;;;;;;17.33;45.39;98396.38;5132591;27;20441;-39
2023/03/10 01:34:32;;;;;;;0.30;0.30;;;;;;;17.32;45.41;98384.56;5134204;27;20042;-39
2023/03/10 01:36:58;;;;;;;0.40;0.40;;;;;;;17.33;45.37;98383.41;5118327;27;20050;-39
2023/03/10 01:39:24;;;;;;;0.40;0.40;;;;;;;17.33;45.22;98379.88;5113678;28;20202;-39
2023/03/10 01:41:49;;;;;;;0.40;0.40;;;;;;;17.33;45.29;98386.16;5112747;27;20551;-39
2023/03/10 01:44:18;;;;;;;0.30;0.30;;;;;;;17.33;45.37;98383.41;5125881;27;20042;-39
2023/03/10 01:46:50;;;;;;;0.40;0.40;;;;;;;17.32;45.44;98379.06;5101729;28;20082;-39
2023/03/10 01:49:26;;;;;;;0.30;0.30;;;;;;;17.33;45.38;98371.63;5095246;28;20709;-39
2023/03/10 01:52:12;;;;;;;0.40;0.40;;;;;;;17.33;45.38;98363.34;5112982;28;20486;-39
2023/03/10 01:54:44;;;;;;;0.40;0.40;;;;;;;17.32;45.31;98364.50;5094090;27;20053;-39
2023/03/10 01:57:10;;;;;;;0.30;0.30;;;;;;;17.32;45.27;98365.31;5134240;27;20054;-39
2023/03/10 01:59:36;;;;;;;0.30;0.30;;;;;;;17.33;45.44;98371.63;5115697;27;20078;-39
2023/03/10 02:02:02;;;;;;;0.40;0.40;;;;;;;17.33;45.53;98382.63;5133390;27;20039;-39
2023/03/10 02:04:40;;;;;;;0.38;0.38;;;;;;;17.33;45.25;98379.88;5115075;27;20522;-39
2023/03/10 02:07:06;;;;;;;0.38;0.38;;;;;;;17.31;45.38;98374.66;5097835;27;20078;-39
2023/03/10 02:09:35;;;;;;;0.35;0.35;;;;;;;17.32;45.43;98381.81;5133812;27;20054;-39
2023/03/10 02:12:02;;;;;;;0.30;0.30;;;;;;;17.33;45.29;98394.41;5133572;27;20074;-39
2023/03/10 02:14:30;;;;;;;0.30;0.30;;;;;;;17.33;45.45;98379.88;5101376;28;20127;-39
2023/03/10 02:16:56;;;;;;;0.30;0.30;;;;;;;17.32;45.61;98384.56;5119314;27;20051;-39
2023/03/10 02:19:34;;;;;;;0.40;0.40;;;;;;;17.32;45.26;98381.81;5133963;27;20385;-39
2023/03/10 02:22:06;;;;;;;0.30;0.30;;;;;;;17.32;45.59;98378.25;5133596;27;20070;-39
2023/03/10 02:24:41;;;;;;;0.30;0.30;;;;;;;17.32;45.41;98376.31;5114394;27;20070;-38
2023/03/10 02:27:23;;;;;;;0.30;0.30;;;;;;;17.33;45.52;98377.91;5100848;27;20063;-39
2023/03/10 02:29:58;;;;;;;0.30;0.30;;;;;;;17.32;45.57;98370.00;5114905;27;20046;-39
2023/03/10 02:32:27;;;;;;;0.30;0.30;;;;;;;17.32;45.23;98368.06;5114995;27;20490;-39
2023/03/10 02:34:53;;;;;;;0.30;0.30;;;;;;;17.33;45.35;98371.63;5132671;27;20051;-39
2023/03/10 02:37:23;;;;;;;0.30;0.30;;;;;;;17.30;45.11;98360.13;5096852;28;20096;-39
2023/03/10 02:39:48;;;;;;;0.30;0.30;;;;;;;17.32;45.41;98356.25;5111378;28;20043;-39
2023/03/10 02:42:14;;;;;;;0.30;0.30;;;;;;;17.32;45.44;98362.56;5111184;27;20054;-39
2023/03/10 02:44:41;;;;;;;0.32;0.32;;;;;;;17.32;45.51;98367.25;5110710;28;20082;-39
2023/03/10 02:47:06;;;;;;;0.30;0.30;;;;;;;17.33;45.26;98363.34;5132182;27;20054;-39
2023/03/10 02:49:34;;;;;;;0.30;0.30;;;;;;;17.32;45.27;98359.00;5133189;27;20103;-39
2023/03/10 02:52:02;;;;;;;0.30;0.30;;;;;;;17.32;45.63;98359.00;5133606;27;20043;-39
2023/03/10 02:54:28;;;;;;;0.30;0.30;;;;;;;17.31;45.41;98347.16;5132942;27;20490;-39
2023/03/10 02:56:54;;;;;;;0.30;0.30;;;;;;;17.32;45.50;98350.75;5117859;27;20047;-39
2023/03/10 02:59:19;;;;;;;0.30;0.30;;;;;;;17.32;45.26;98346.06;5112527;28;20403;-39
2023/03/10 03:01:45;;;;;;;0.30;0.30;;;;;;;17.33;45.44;98349.59;5111994;28;20565;-39
2023/03/10 03:04:11;;;;;;;0.40;0.40;;;;;;;17.30;45.55;98343.59;5122138;27;20054;-39
2023/03/10 03:06:38;;;;;;;0.30;0.30;;;;;;;17.30;45.32;98335.34;5131822;27;20057;-39
2023/03/10 03:09:04;;;;;;;0.40;0.40;;;;;;;17.30;45.40;98332.59;5113919;27;20383;-39
2023/03/10 03:11:29;;;;;;;0.30;0.30;;;;;;;17.32;45.65;98326.78;5132981;27;20089;-39
2023/03/10 03:13:55;;;;;;;0.40;0.40;;;;;;;17.31;45.36;98338.91;5133058;27;20047;-39
2023/03/10 03:16:21;;;;;;;0.30;0.30;;;;;;;17.30;45.32;98338.09;5132805;27;20410;-39
2023/03/10 03:18:47;;;;;;;0.30;0.30;;;;;;;17.30;45.13;98337.31;5132367;27;20097;-39
2023/03/10 03:21:16;;;;;;;0.40;0.40;;;;;;;17.32;45.59;98345.25;5131164;27;20051;-39
2023/03/10 03:23:44;;;;;;;0.40;0.40;;;;;;;17.32;45.26;98350.75;5132931;27;20215;-39
2023/03/10 03:26:16;;;;;;;0.28;0.28;;;;;;;17.30;45.52;98342.81;5123325;27;20084;-39
2023/03/10 03:28:42;;;;;;;0.30;0.30;;;;;;;17.31;45.51;98349.91;5106139;28;20078;-39
2023/03/10 03:31:14;;;;;;;0.30;0.30;;;;;;;17.29;45.42;98328.25;5112222;27;20043;-39
2023/03/10 03:33:39;;;;;;;0.40;0.40;;;;;;;17.30;45.46;98335.34;5116385;27;20267;-39
2023/03/10 03:36:06;;;;;;;0.30;0.30;;;;;;;17.32;45.26;98339.75;5113290;27;20050;-39
2023/03/10 03:38:31;;;;;;;0.40;0.40;;;;;;;17.30;45.40;98332.59;5131894;27;20411;-42
2023/03/10 03:40:57;;;;;;;0.40;0.40;;;;;;;17.31;45.51;98336.16;5131912;27;20574;-39
2023/03/10 03:43:24;;;;;;;0.30;0.30;;;;;;;17.32;45.43;98339.75;5132632;27;20039;-39
2023/03/10 03:45:49;;;;;;;0.40;0.40;;;;;;;17.31;45.36;98336.16;5107737;28;20098;-39
2023/03/10 03:48:15;;;;;;;0.40;0.40;;;;;;;17.30;45.36;98332.59;5125026;27;20065;-39
2023/03/10 03:50:41;;;;;;;0.40;0.40;;;;;;;17.30;45.67;98334.56;5113667;27;20046;-39
2023/03/10 03:53:06;;;;;;;0.40;0.40;;;;;;;17.29;45.27;98336.50;5132142;27;20659;-39
2023/03/10 03:55:32;;;;;;;0.30;0.30;;;;;;;17.31;45.54;98336.16;5133592;27;20055;-39
2023/03/10 03:57:58;;;;;;;0.30;0.30;;;;;;;17.32;45.51;98339.75;5135569;27;20532;-39
2023/03/10 04:00:24;;;;;;;0.30;0.30;;;;;;;17.32;45.23;98328.75;5135140;27;20047;-39
2023/03/10 04:02:49;;;;;;;0.30;0.30;;;;;;;17.30;45.34;98313.34;5116641;27;20050;-39
2023/03/10 04:05:15;;;;;;;0.30;0.30;;;;;;;17.30;45.35;98318.84;5133692;27;20042;-39
2023/03/10 04:07:42;;;;;;;0.30;0.30;;;;;;;17.32;45.65;98318.53;5115895;27;20046;-39
2023/03/10 04:10:09;;;;;;;0.30;0.30;;;;;;;17.30;45.47;98312.56;5116784;27;20538;-39
2023/03/10 04:12:35;;;;;;;0.40;0.40;;;;;;;17.30;45.40;98310.59;5115993;27;20517;-39
2023/03/10 04:15:00;;;;;;;0.30;0.30;;;;;;;17.30;45.66;98316.09;5116746;27;20047;-39
2023/03/10 04:17:26;;;;;;;0.30;0.30;;;;;;;17.30;45.47;98313.34;5115194;27;20415;-39
2023/03/10 04:19:52;;;;;;;0.30;0.30;;;;;;;17.32;45.40;98309.47;5114736;27;20058;-39
2023/03/10 04:22:33;;;;;;;0.30;0.30;;;;;;;17.29;45.44;98300.75;5134539;27;20039;-39
2023/03/10 04:24:58;;;;;;;0.30;0.30;;;;;;;17.31;45.36;98311.41;5119209;27;20047;-39
2023/03/10 04:27:24;;;;;;;0.30;0.30;;;;;;;17.32;45.63;98307.53;5133946;27;20049;-39
2023/03/10 04:29:50;;;;;;;0.35;0.35;;;;;;;17.30;45.42;98305.09;5116158;27;20058;-39
2023/03/10 04:32:15;;;;;;;0.40;0.40;;;;;;;17.30;45.37;98310.59;5134864;27;20565;-39
2023/03/10 04:34:41;;;;;;;0.30;0.30;;;;;;;17.30;45.62;98313.34;5134891;27;20043;-39
2023/03/10 04:37:07;;;;;;;0.30;0.30;;;;;;;17.31;45.49;98308.66;5109969;27;20051;-39
2023/03/10 04:39:32;;;;;;;0.40;0.40;;;;;;;17.30;45.51;98307.84;5134903;27;20297;-39
2023/03/10 04:41:58;;;;;;;0.30;0.30;;;;;;;17.30;45.27;98298.78;5134774;27;20525;-39
2023/03/10 04:44:24;;;;;;;0.40;0.40;;;;;;;17.30;45.41;98299.59;5134954;27;20053;-39
2023/03/10 04:46:56;;;;;;;0.30;0.30;;;;;;;17.31;45.58;98300.41;5119860;27;20051;-39
2023/03/10 04:49:22;;;;;;;0.32;0.32;;;;;;;17.29;45.58;98295.25;5106470;27;20047;-39
2023/03/10 04:51:48;;;;;;;0.40;0.40;;;;;;;17.31;45.52;98303.16;5134534;27;20046;-39
2023/03/10 04:54:14;;;;;;;0.30;0.30;;;;;;;17.30;45.34;98291.34;5134212;27;20045;-39
2023/03/10 04:56:39;;;;;;;0.30;0.30;;;;;;;17.30;45.32;98294.09;5103073;28;20039;-39
2023/03/10 04:59:05;;;;;;;0.40;0.40;;;;;;;17.31;45.50;98292.16;5133726;27;20051;-39
2023/03/10 05:01:31;;;;;;;0.30;0.30;;;;;;;17.30;45.34;98288.59;5134614;27;20266;-39
2023/03/10 05:04:02;;;;;;;0.40;0.40;;;;;;;17.30;45.47;98287.78;5134088;27;20047;-39
2023/03/10 05:06:27;;;;;;;0.40;0.40;;;;;;;17.32;45.46;98290.22;5134985;27;20525;-39
2023/03/10 05:08:53;;;;;;;0.30;0.30;;;;;;;17.30;45.60;98288.59;5115559;27;20478;-39
2023/03/10 05:11:19;;;;;;;0.40;0.40;;;;;;;17.30;45.46;98279.53;5134476;27;20285;-39
2023/03/10 05:13:45;;;;;;;0.30;0.30;;;;;;;17.30;45.41;98280.34;5134367;27;20073;-39
2023/03/10 05:16:13;;;;;;;0.40;0.40;;;;;;;17.32;45.59;98284.72;5134494;27;20046;-39
2023/03/10 05:18:39;;;;;;;0.30;0.30;;;;;;;17.29;45.77;98278.75;5134540;27;20051;-39
2023/03/10 05:21:04;;;;;;;0.30;0.30;;;;;;;17.30;45.44;98279.53;5134304;27;20047;-39
2023/03/10 05:23:30;;;;;;;0.30;0.30;;;;;;;17.31;45.64;98286.66;5133473;27;20054;-39
2023/03/10 05:25:56;;;;;;;0.30;0.30;;;;;;;17.30;45.37;98279.53;5133991;27;20051;-39
2023/03/10 05:28:22;;;;;;;0.30;0.30;;;;;;;17.31;45.53;98278.41;5134206;27;20490;-39
2023/03/10 05:30:48;;;;;;;0.30;0.30;;;;;;;17.32;45.50;98274.53;5134106;27;20046;-38
2023/03/10 05:33:14;;;;;;;0.40;0.40;;;;;;;17.30;45.49;98282.28;5133960;27;20251;-39
2023/03/10 05:35:40;;;;;;;0.40;0.40;;;;;;;17.32;45.39;98281.97;5128950;27;20035;-39
2023/03/10 05:38:05;;;;;;;0.30;0.30;;;;;;;17.30;45.34;98285.84;5113823;27;20495;-39
2023/03/10 05:40:31;;;;;;;0.30;0.30;;;;;;;17.30;45.40;98271.28;5133103;27;20192;-39
2023/03/10 05:42:57;;;;;;;0.40;0.40;;;;;;;17.30;45.61;98279.53;5129609;27;20060;-39
2023/03/10 05:45:22;;;;;;;0.40;0.40;;;;;;;17.31;45.57;98270.13;5128610;27;20532;-39
2023/03/10 05:47:48;;;;;;;0.30;0.30;;;;;;;17.31;45.33;98272.91;5117882;27;20046;-39
2023/03/10 05:50:14;;;;;;;0.40;0.40;;;;;;;17.32;45.69;98270.97;5133926;27;20053;-39
2023/03/10 05:52:42;;;;;;;0.30;0.30;;;;;;;17.30;45.64;98277.59;5126330;27;20067;-39
2023/03/10 05:55:11;;;;;;;0.30;0.30;;;;;;;17.31;45.36;98272.91;5090305;27;20043;-39
2023/03/10 05:57:37;;;;;;;0.30;0.30;;;;;;;17.31;45.60;98272.91;5109647;27;20484;-39
2023/03/10 06:00:04;;;;;;;0.40;0.40;;;;;;;17.32;45.44;98277.28;5117569;27;20482;-39
2023/03/10 06:02:30;;;;;;;0.30;0.30;;;;;;;17.29;45.32;98276.00;5112625;27;20219;-39
2023/03/10 06:04:55;;;;;;;0.30;0.30;;;;;;;17.32;45.51;98274.53;5129983;27;20071;-39
2023/03/10 06:07:21;;;;;;;0.40;0.40;;;;;;;17.30;45.75;98274.84;5117991;27;20038;-39
2023/03/10 06:09:47;;;;;;;0.40;0.40;;;;;;;17.30;45.37;98283.09;5113834;27;20115;-39
2023/03/10 06:12:12;;;;;;;0.38;0.38;;;;;;;17.32;45.49;98277.28;5124359;27;20053;-39
2023/03/10 06:14:38;;;;;;;0.30;0.30;;;;;;;17.30;45.60;98274.03;5119644;27;20051;-39
2023/03/10 06:17:04;;;;;;;0.40;0.40;;;;;;;17.30;45.16;98279.53;5126883;27;20335;-39
2023/03/10 06:19:29;;;;;;;0.20;0.20;;;;;;;17.32;45.51;98280.03;5125182;27;20058;-39
2023/03/10 06:21:55;;;;;;;0.35;0.35;;;;;;;17.31;45.72;98275.66;5123623;27;20696;-39
2023/03/10 06:24:21;;;;;;;0.30;0.30;;;;;;;17.31;45.47;98286.66;5116934;27;20050;-39
2023/03/10 06:26:46;;;;;;;0.40;0.40;;;;;;;17.31;45.47;98281.16;5105797;27;20136;-39
2023/03/10 06:29:12;;;;;;;0.30;0.30;;;;;;;17.32;45.67;98281.97;5118388;27;20407;-39
2023/03/10 06:31:38;;;;;;;0.30;0.30;;;;;;;17.30;45.56;98276.78;5118567;27;20055;-39
2023/03/10 06:34:03;;;;;;;0.30;0.30;;;;;;;17.32;45.69;98273.72;5125277;27;20053;-39
2023/03/10 06:36:31;;;;;;;0.40;0.40;;;;;;;17.31;45.61;98281.16;5124268;27;20063;-38
2023/03/10 06:38:57;;;;;;;0.30;0.30;;;;;;;17.32;45.40;98281.97;5106457;27;20050;-39
2023/03/10 06:41:23;;;;;;;0.40;0.40;;;;;;;17.32;45.74;98287.47;5125716;27;20338;-39
2023/03/10 06:43:49;;;;;;;0.40;0.40;;;;;;;17.31;45.66;98289.41;5107324;27;20100;-39
2023/03/10 06:46:14;;;;;;;0.35;0.35;;;;;;;17.33;45.58;98278.09;5120039;27;20042;-39
2023/03/10 06:48:41;;;;;;;0.30;0.30;;;;;;;17.31;45.49;98281.16;5101852;27;20053;-39
2023/03/10 06:51:10;;;;;;;0.40;0.40;;;;;;;17.30;45.41;98285.84;5095513;27;20047;-39
2023/03/10 06:53:36;;;;;;;0.38;0.38;;;;;;;17.32;45.49;98292.97;5092799;27;20853;-38
2023/03/10 06:56:05;;;;;;;0.30;0.30;;;;;;;17.31;45.87;98294.91;5119187;27;20394;-39
2023/03/10 06:58:32;;;;;;;0.30;0.30;;;;;;;17.32;45.33;98292.97;5098456;27;20046;-39
2023/03/10 07:00:58;;;;;;;0.40;0.40;;;;;;;17.31;45.87;98294.91;5099945;27;20050;-39
2023/03/10 07:03:25;;;;;;;0.30;0.30;;;;;;;17.32;45.81;98304.78;5106547;27;20043;-39
2023/03/10 07:05:51;;;;;;;0.30;0.30;;;;;;;17.33;45.68;98302.84;5130385;27;20247;-39
2023/03/10 07:08:17;;;;;;;0.32;0.32;;;;;;;17.33;45.46;98298.13;5123667;27;20082;-39
2023/03/10 07:10:43;;;;;;;0.30;0.30;;;;;;;17.33;45.75;98300.09;5126414;27;20047;-39
2023/03/10 07:13:12;;;;;;;0.35;0.35;;;;;;;17.32;45.74;98302.03;5121380;27;20464;-39
2023/03/10 07:15:38;;;;;;;0.30;0.30;;;;;;;17.31;45.44;98305.91;5131662;27;20143;-40
2023/03/10 07:18:05;;;;;;;0.30;0.30;;;;;;;17.31;45.61;98308.66;5113215;27;20888;-39
2023/03/10 07:20:31;;;;;;;0.30;0.30;;;;;;;17.31;45.83;98305.91;5127321;27;20268;-39
2023/03/10 07:22:56;;;;;;;0.40;0.40;;;;;;;17.33;45.83;98305.59;5131178;27;20478;-39
2023/03/10 07:25:23;;;;;;;0.32;0.32;;;;;;;17.31;45.69;98308.66;5124005;27;20047;-38
2023/03/10 07:27:49;;;;;;;0.30;0.30;;;;;;;17.30;45.73;98299.59;5124518;27;20144;-39
2023/03/10 07:30:15;;;;;;;0.40;0.40;;;;;;;17.32;45.65;98307.53;5115961;27;20043;-39
2023/03/10 07:32:40;;;;;;;0.30;0.30;;;;;;;17.32;45.81;98312.25;5122164;27;20138;-39
2023/03/10 07:35:07;;;;;;;0.40;0.40;;;;;;;17.32;45.58;98312.25;5123082;27;20050;-39
2023/03/10 07:37:36;;;;;;;0.40;0.40;;;;;;;17.33;45.81;98319.34;5101073;27;20289;-39
2023/03/10 07:40:02;;;;;;;0.40;0.40;;;;;;;17.33;45.69;98319.34;5099066;27;20059;-39
2023/03/10 07:42:27;;;;;;;0.40;0.40;;;;;;;17.33;45.81;98313.84;5122466;27;20043;-39
2023/03/10 07:44:53;;;;;;;0.50;0.50;;;;;;;17.32;45.81;98317.75;5130307;27;20057;-39
2023/03/10 07:47:19;;;;;;;0.40;0.40;;;;;;;17.31;45.91;98311.41;5119777;27;20049;-39
2023/03/10 07:49:45;;;;;;;0.38;0.38;;;;;;;17.32;45.66;98304.78;5111955;27;20069;-39
2023/03/10 07:52:13;;;;;;;0.40;0.40;;;;;;;17.32;45.98;98315.00;5110341;27;20509;-39
2023/03/10 07:54:38;;;;;;;0.40;0.40;;;;;;;17.32;45.96;98303.97;5112535;27;20457;-39
2023/03/10 07:57:04;;;;;;;0.30;0.30;;;;;;;17.32;45.94;98313.03;5105860;27;20039;-39
2023/03/10 07:59:30;;;;;;;0.40;0.40;;;;;;;17.33;45.95;98316.59;5100354;27;20054;-41
2023/03/10 08:01:55;;;;;;;0.30;0.30;;;;;;;17.32;45.94;98318.53;5098712;27;20360;-39
2023/03/10 08:04:21;;;;;;;0.40;0.40;;;;;;;17.33;45.96;98316.59;5107295;27;20055;-39
2023/03/10 08:06:47;;;;;;;0.30;0.30;;;;;;;17.32;45.98;98317.75;5098083;27;20659;-39
2023/03/10 08:09:12;;;;;;;0.30;0.30;;;;;;;17.33;45.78;98322.91;5088709;27;20046;-39
2023/03/10 08:11:38;;;;;;;0.40;0.40;;;;;;;17.32;46.05;98323.25;5100826;27;20050;-39
2023/03/10 08:14:04;;;;;;;0.30;0.30;;;;;;;17.31;45.71;98325.16;5104601;27;20043;-39
2023/03/10 08:16:30;;;;;;;0.40;0.40;;;;;;;17.32;45.75;98326.78;5115588;27;20047;-39
2023/03/10 08:18:56;;;;;;;0.40;0.40;;;;;;;17.33;45.84;98330.34;5114645;27;20076;-39
2023/03/10 08:21:21;;;;;;;0.40;0.40;;;;;;;17.32;45.91;98329.53;5127814;27;20043;-39
2023/03/10 08:23:47;;;;;;;0.40;0.40;;;;;;;17.32;46.00;98329.53;5119710;27;20422;-39
2023/03/10 08:26:15;;;;;;;0.40;0.40;;;;;;;17.33;45.88;98331.16;5117858;27;20126;-39
2023/03/10 08:28:41;;;;;;;0.30;0.30;;;;;;;17.33;45.76;98330.34;5119510;27;20075;-39
2023/03/10 08:31:08;;;;;;;0.40;0.40;;;;;;;17.33;45.92;98319.34;5101116;27;21006;-39
2023/03/10 08:33:34;;;;;;;0.30;0.30;;;;;;;17.33;46.06;98335.84;5081193;27;20401;-39
2023/03/10 08:36:02;;;;;;;0.40;0.40;;;;;;;17.33;45.69;98335.84;5118180;27;20043;-39
2023/03/10 08:38:28;;;;;;;0.30;0.30;;;;;;;17.32;46.03;98335.03;5118951;27;20525;-39
2023/03/10 08:40:54;;;;;;;0.40;0.40;;;;;;;17.33;45.78;98331.16;5115485;27;20039;-39
2023/03/10 08:43:20;;;;;;;0.30;0.30;;;;;;;17.33;45.88;98336.66;5114511;27;20712;-39
2023/03/10 08:45:45;;;;;;;0.40;0.40;;;;;;;17.33;45.87;98338.59;5114939;27;20051;-39
2023/03/10 08:48:11;;;;;;;0.40;0.40;;;;;;;17.34;46.05;98329.19;5119650;27;20045;-39
2023/03/10 08:50:37;;;;;;;0.30;0.30;;;;;;;17.35;45.81;98325.31;5119418;27;20107;-39
2023/03/10 08:53:02;;;;;;;0.40;0.40;;;;;;;17.32;45.84;98318.53;5113901;27;20047;-39
2023/03/10 08:55:28;;;;;;;0.40;0.40;;;;;;;17.37;46.27;98323.84;5117236;27;20047;-39
2023/03/10 08:57:54;;;;;;;0.40;0.40;;;;;;;17.39;46.46;98329.81;5118249;27;20143;-39
2023/03/10 09:00:20;;;;;;;0.40;0.40;;;;;;;17.38;46.12;98322.72;5112796;27;20433;-39
2023/03/10 09:02:45;;;;;;;0.30;0.30;;;;;;;17.38;46.48;98327.41;5118957;27;20099;-39
2023/03/10 09:05:11;;;;;;;0.40;0.40;;;;;;;17.37;46.16;98328.56;5108161;27;20310;-39
2023/03/10 09:07:37;;;;;;;0.30;0.30;;;;;;;17.37;46.54;98334.84;5107702;27;20047;-39
2023/03/10 09:10:04;;;;;;;0.50;0.50;;;;;;;17.39;46.00;98335.31;5102519;27;20835;-39
2023/03/10 09:12:29;;;;;;;0.40;0.40;;;;;;;17.43;47.23;98332.72;5110796;27;20270;-39
2023/03/10 09:15:02;;;;;;;0.40;0.40;;;;;;;17.43;47.77;98343.72;5115139;27;20631;-39
2023/03/10 09:17:28;;;;;;;0.40;0.40;;;;;;;17.42;47.64;98331.91;5114705;27;20049;-39
2023/03/10 09:19:53;;;;;;;0.40;0.40;;;;;;;17.42;47.64;98340.16;5111266;27;21009;-39
2023/03/10 09:22:19;;;;;;;0.40;0.40;;;;;;;17.42;47.38;98331.91;5106560;27;20050;-39
2023/03/10 09:24:45;;;;;;;0.40;0.40;;;;;;;17.44;47.47;98342.56;5108163;27;20241;-39
2023/03/10 09:27:10;;;;;;;0.40;0.40;;;;;;;17.44;47.14;98340.66;5110435;27;20062;-39
2023/03/10 09:29:36;;;;;;;0.40;0.40;;;;;;;17.45;47.37;98344.22;5113230;27;20046;-39
2023/03/10 09:32:08;;;;;;;0.40;0.40;;;;;;;17.44;46.93;98351.66;5104672;27;20050;-39
2023/03/10 09:34:34;;;;;;;0.40;0.40;;;;;;;17.45;47.31;98345.00;5081303;27;20047;-39
2023/03/10 09:37:00;;;;;;;0.40;0.40;;;;;;;17.46;46.99;98345.81;5087877;27;20530;-39
2023/03/10 09:39:26;;;;;;;0.30;0.30;;;;;;;17.47;47.16;98344.66;5082495;27;20292;-39
2023/03/10 09:42:07;;;;;;;0.40;0.40;;;;;;;17.47;46.95;98345.47;5115738;27;20593;-39
2023/03/10 09:44:48;;;;;;;0.40;0.40;;;;;;;17.49;47.07;98345.97;5120261;27;20077;-39
2023/03/10 09:47:22;;;;;;;0.40;0.40;;;;;;;17.48;46.86;98347.09;5103230;27;20043;-39
2023/03/10 09:49:56;;;;;;;0.40;0.40;;;;;;;17.48;46.91;98344.31;5095020;27;20141;-39
2023/03/10 09:52:27;;;;;;;0.40;0.40;;;;;;;17.49;46.78;98342.41;5120730;27;20499;-39
2023/03/10 09:54:58;;;;;;;0.30;0.30;;;;;;;17.48;46.88;98347.09;5122991;27;20551;-39
2023/03/10 09:57:24;;;;;;;0.40;0.40;;;;;;;17.49;46.78;98336.91;5106548;27;20176;-39
2023/03/10 09:59:54;;;;;;;0.30;0.30;;;;;;;17.49;46.70;98337.72;5093554;27;20498;-39
2023/03/10 10:02:23;;;;;;;0.30;0.30;;;;;;;17.51;46.69;98343.66;5112848;27;20043;-39
2023/03/10 10:04:53;;;;;;;0.40;0.40;;;;;;;17.51;46.67;98340.91;5123476;27;20150;-39
2023/03/10 10:07:21;;;;;;;0.32;0.32;;;;;;;17.51;46.71;98345.63;5119011;27;20073;-39
2023/03/10 10:09:54;;;;;;;0.30;0.30;;;;;;;17.51;46.69;98349.19;5120548;27;20323;-39
2023/03/10 10:12:22;;;;;;;0.30;0.30;;;;;;;17.52;46.62;98349.97;5116561;27;20397;-39
2023/03/10 10:14:55;;;;;;;0.30;0.30;;;;;;;17.52;46.68;98348.03;5126169;27;20256;-39
2023/03/10 10:19:58;;;;;;;0.20;0.20;;;;;;;17.57;46.69;98341.53;5141565;27;20984;-36
2023/03/10 10:22:27;;;;;;;0.30;0.30;;;;;;;17.58;46.70;98342.38;5120152;27;20070;-36
2023/03/10 10:25:19;;;;;;;0.30;0.30;;;;;;;17.56;46.57;98339.94;5086222;27;20047;-36
2023/03/10 10:27:46;;;;;;;0.40;0.40;;;;;;;17.55;46.63;98343.81;5102780;27;20054;-37
2023/03/10 10:30:34;;;;;;;0.40;0.40;;;;;;;17.54;46.70;98355.97;5120021;27;20070;-37
2023/03/10 10:33:01;;;;;;;;;;;;;;;17.54;46.66;98351.28;5082974;27;20096;-36
2023/03/10 10:35:31;;;;;;;0.40;0.40;;;;;;;17.53;46.64;98346.91;5106610;27;19950;-36
2023/03/10 10:38:09;;;;;;;0.40;0.40;;;;;;;17.53;46.58;98351.63;5102840;27;20073;-36
2023/03/10 10:40:44;;;;;;;;;;;;;;;17.54;46.85;98355.97;5109345;27;20457;-37
2023/03/10 10:43:15;;;;;;;0.40;0.40;;;;;;;17.53;46.73;98357.13;5102398;27;19946;-36
2023/03/10 10:45:41;;;;;;;0.40;0.40;;;;;;;17.53;46.76;98351.63;5089649;27;20496;-36
2023/03/10 10:48:29;;;;;;;0.40;0.40;;;;;;;17.53;46.56;98346.13;5114287;27;20133;-36
2023/03/10 10:50:54;;;;;;;0.40;0.40;;;;;;;17.53;46.58;98346.13;5092619;27;20472;-37
2023/03/10 10:53:23;;;;;;;0.40;0.40;;;;;;;17.53;46.77;98348.88;5103277;27;20268;-36
2023/03/10 10:56:43;;;;;;;;;;;;;;;;;;;;;
2023/03/10 11:03:29;;;;;;;0.40;0.40;;;;;;;17.52;46.54;98349.97;5079166;27;20077;-37
2023/03/10 11:05:59;;;;;;;0.40;0.40;;;;;;;17.52;46.69;98347.22;5093924;27;20128;-36
2023/03/10 11:08:31;;;;;;;0.40;0.40;;;;;;;17.53;46.65;98348.88;5115981;27;20377;-36
2023/03/10 11:11:19;;;;;;;0.40;0.40;;;;;;;17.52;46.68;98347.22;5104432;27;20214;-37
2023/03/10 11:14:19;;;;;;;0.30;0.30;;;;;;;17.52;46.66;98344.47;5097717;27;20077;-36
2023/03/10 11:16:54;;;;;;;0.40;0.40;;;;;;;17.53;46.49;98346.13;5083089;27;20043;-37
2023/03/10 11:20:00;;;;;;;0.40;0.40;;;;;;;17.52;46.48;98345.28;5112958;27;20138;-36
2023/03/10 11:25:18;;;;;;;0.30;0.30;;;;;;;17.50;46.49;98344.81;5155256;27;20123;-36
2023/03/10 11:27:55;;;;;;;0.40;0.40;;;;;;;17.51;46.74;98356.63;5135021;27;20598;-37
2023/03/10 11:30:31;;;;;;;0.40;0.40;;;;;;;17.50;46.44;98353.06;5117451;27;20089;-37
2023/03/10 11:33:07;;;;;;;0.40;0.40;;;;;;;17.52;46.51;98355.47;5103059;27;20082;-39
2023/03/10 11:35:44;;;;;;;0.32;0.32;;;;;;;17.51;46.64;98353.88;5115398;27;20051;-39
2023/03/10 11:38:18;;;;;;;0.40;0.40;;;;;;;17.50;46.54;98347.56;5117874;27;20040;-39
2023/03/10 11:40:47;;;;;;;0.40;0.40;;;;;;;17.51;46.59;98353.88;5110374;27;20071;-39
2023/03/10 11:43:37;;;;;;;0.40;0.40;;;;;;;17.50;46.59;98355.81;5112882;27;20043;-43
2023/03/10 11:46:09;;;;;;;0.40;0.40;;;;;;;17.50;46.50;98353.06;5101222;27;20473;-39
2023/03/10 11:48:45;;;;;;;0.38;0.38;;;;;;;17.50;46.52;98346.78;5114319;27;20154;-39
2023/03/10 11:51:17;;;;;;;0.40;0.40;;;;;;;17.50;46.59;98347.56;5114346;27;20087;-39